Crayne, Kentucky
Current Conditions -  °F | °C
As of 6:55 AM on Friday 19 Dec 2014 (Local Time) from K5M9 Reporting Station
Overcast Overcast  
Wind Chill: 24°   Ceiling: 3800
Heat Index: 29°   Visibility: 7mi
Dew Point: 27°   Wind: 5mph
Humidity: 92%   Direction: 40°NE
Pressure: 30.29"   Gusts: NA
Location:  37.27°N, 88.08°W
Report Text: K5M9 191255Z AUTO 04004KT 7SM OVC038 M02/M03 A3029 RMK AO2 T10171029
Loading
Personal Weather Stations






























Interactive Weather Map New forecast layout! Learn more

10-Day Weather Forecast

Advertisements
Track Severe Weather on mobile